createdAt,value
2016-09-09T00:00:44.027Z,21.55
2016-09-09T00:01:54.036Z,21.49
2016-09-09T00:03:04.384Z,21.56
2016-09-09T00:04:14.370Z,21.62
2016-09-09T00:05:24.368Z,21.53
2016-09-09T00:06:34.069Z,21.51
2016-09-09T00:07:44.055Z,21.46
2016-09-09T00:08:54.380Z,21.53
2016-09-09T00:10:04.682Z,21.51
2016-09-09T00:11:14.971Z,21.53
2016-09-09T00:12:25.252Z,21.46
2016-09-09T00:13:35.241Z,21.51
2016-09-09T00:14:44.912Z,21.48
2016-09-09T00:15:55.212Z,21.46
2016-09-09T00:17:04.905Z,21.46
2016-09-09T00:18:14.591Z,21.52
2016-09-09T00:19:24.905Z,21.4
2016-09-09T00:20:34.915Z,21.43
2016-09-09T00:21:44.895Z,21.4
2016-09-09T00:22:55.197Z,21.34
2016-09-09T00:24:05.489Z,21.36
2016-09-09T00:25:15.793Z,21.3
2016-09-09T00:26:25.803Z,21.34
2016-09-09T00:27:36.127Z,21.3
2016-09-09T00:28:46.126Z,21.33
2016-09-09T00:29:56.425Z,21.18
2016-09-09T00:31:06.442Z,21.28
2016-09-09T00:32:16.157Z,21.21
2016-09-09T00:33:26.470Z,21.23
2016-09-09T00:34:36.468Z,21.25
2016-09-09T00:35:46.784Z,21.25
2016-09-09T00:36:57.093Z,21.23
2016-09-09T00:38:07.408Z,21.19
2016-09-09T00:39:17.387Z,21.27
2016-09-09T00:40:26.773Z,21.18
2016-09-09T00:41:36.770Z,21.15
2016-09-09T00:42:46.449Z,21.21
2016-09-09T00:43:56.452Z,21.21
2016-09-09T00:45:06.751Z,21.13
2016-09-09T00:46:16.742Z,21.06
2016-09-09T00:47:26.739Z,21.13
2016-09-09T00:48:36.114Z,21.08
2016-09-09T00:49:46.412Z,21.13
2016-09-09T00:50:56.706Z,21.03
2016-09-09T00:52:07.006Z,21.08
2016-09-09T00:53:17.017Z,20.97
2016-09-09T00:54:26.696Z,21.01
2016-09-09T00:55:36.983Z,20.9
2016-09-09T00:56:46.662Z,20.97
2016-09-09T00:57:56.641Z,20.96
2016-09-09T00:59:06.311Z,20.96
2016-09-09T01:00:16.599Z,20.94
2016-09-09T01:01:26.930Z,21.01
2016-09-09T01:02:36.930Z,20.97
2016-09-09T01:03:46.922Z,20.93
2016-09-09T01:04:56.920Z,20.91
2016-09-09T01:06:06.903Z,20.91
2016-09-09T01:07:16.891Z,20.91
2016-09-09T01:08:27.201Z,20.91
2016-09-09T01:09:37.489Z,20.86
2016-09-09T01:10:47.468Z,20.91
2016-09-09T01:11:57.471Z,20.88
2016-09-09T01:13:07.768Z,20.85
2016-09-09T01:14:18.299Z,20.83
2016-09-09T01:15:28.299Z,20.81
2016-09-09T01:16:37.975Z,20.83
2016-09-09T01:17:48.280Z,20.81
2016-09-09T01:18:58.278Z,20.83
2016-09-09T01:20:08.273Z,20.82
2016-09-09T01:21:18.789Z,20.76
2016-09-09T01:22:28.467Z,20.74
2016-09-09T01:23:38.468Z,20.83
2016-09-09T01:24:48.758Z,20.82
2016-09-09T01:25:58.746Z,20.81
2016-09-09T01:27:08.431Z,20.75
2016-09-09T01:28:18.118Z,20.71
2016-09-09T01:29:28.123Z,20.6
2016-09-09T01:30:38.434Z,20.63
2016-09-09T01:31:48.741Z,20.63
2016-09-09T01:32:59.037Z,20.48
2016-09-09T01:34:09.382Z,20.54
2016-09-09T01:35:19.684Z,20.53
2016-09-09T01:36:29.364Z,20.48
2016-09-09T01:37:39.669Z,20.44
2016-09-09T01:38:49.968Z,20.41
2016-09-09T01:39:59.940Z,20.49
2016-09-09T01:41:10.269Z,20.57
2016-09-09T01:42:20.555Z,20.51
2016-09-09T01:43:29.647Z,20.44
2016-09-09T01:44:39.959Z,20.41
2016-09-09T01:45:49.948Z,20.44
2016-09-09T01:46:59.318Z,20.46
2016-09-09T01:48:09.301Z,20.44
2016-09-09T01:49:19.594Z,20.49
2016-09-09T01:50:29.913Z,20.44
2016-09-09T01:51:39.911Z,20.49
2016-09-09T01:52:49.592Z,20.42
2016-09-09T01:53:59.584Z,20.42
2016-09-09T01:55:09.870Z,20.41
2016-09-09T01:56:19.858Z,20.35
2016-09-09T01:57:29.853Z,20.35
2016-09-09T01:58:40.140Z,20.34
2016-09-09T01:59:49.827Z,20.42
2016-09-09T02:00:59.494Z,20.37
2016-09-09T02:02:09.774Z,20.38
2016-09-09T02:03:20.064Z,20.41
2016-09-09T02:04:29.444Z,20.38
2016-09-09T02:05:39.435Z,20.34
2016-09-09T02:06:49.417Z,20.37
2016-09-09T02:07:59.079Z,20.37
2016-09-09T02:09:09.066Z,20.25
2016-09-09T02:10:19.360Z,20.26
2016-09-09T02:11:29.659Z,20.25
2016-09-09T02:12:39.629Z,20.27
2016-09-09T02:13:49.927Z,20.27
2016-09-09T02:14:59.908Z,20.22
2016-09-09T02:16:09.885Z,20.23
2016-09-09T02:17:19.855Z,20.25
2016-09-09T02:18:29.536Z,20.25
2016-09-09T02:19:39.204Z,20.26
2016-09-09T02:20:49.493Z,20.27
2016-09-09T02:21:59.172Z,20.23
2016-09-09T02:23:09.146Z,20.2
2016-09-09T02:24:18.826Z,20.2
2016-09-09T02:25:29.100Z,20.27
2016-09-09T02:26:39.404Z,20.2
2016-09-09T02:27:49.690Z,20.15
2016-09-09T02:28:59.990Z,20.16
2016-09-09T02:30:10.287Z,20.18
2016-09-09T02:31:20.262Z,20.19
2016-09-09T02:32:30.259Z,20.12
2016-09-09T02:33:40.533Z,20.15
2016-09-09T02:34:50.533Z,20.1
2016-09-09T02:36:00.850Z,20.12
2016-09-09T02:37:10.850Z,20.11
2016-09-09T02:38:20.537Z,20.05
2016-09-09T02:39:30.525Z,20.05
2016-09-09T02:40:40.209Z,20.05
2016-09-09T02:41:50.206Z,20.01
2016-09-09T02:42:59.890Z,20.04
2016-09-09T02:44:09.872Z,20
2016-09-09T02:45:20.164Z,20.01
2016-09-09T02:46:30.169Z,19.97
2016-09-09T02:47:40.460Z,20.04
2016-09-09T02:48:49.850Z,19.95
2016-09-09T02:50:00.171Z,19.95
2016-09-09T02:51:10.480Z,19.92
2016-09-09T02:52:20.174Z,19.78
2016-09-09T02:53:30.467Z,19.85
2016-09-09T02:54:40.771Z,19.82
2016-09-09T02:55:51.071Z,19.78
2016-09-09T02:57:01.076Z,19.74
2016-09-09T02:58:11.117Z,19.75
2016-09-09T02:59:21.418Z,19.79
2016-09-09T03:00:31.423Z,19.74
2016-09-09T03:32:36.432Z,16.33
2016-09-09T03:33:46.702Z,16.26
2016-09-09T03:34:56.993Z,16.3
2016-09-09T03:36:07.268Z,16.32
2016-09-09T03:37:17.559Z,16.3
2016-09-09T03:38:27.863Z,16.37
2016-09-09T03:39:38.157Z,16.44
2016-09-09T03:40:48.123Z,16.54
2016-09-09T03:41:58.436Z,16.65
2016-09-09T03:43:08.726Z,16.88
2016-09-09T03:44:19.007Z,17.03
2016-09-09T03:45:28.999Z,17.24
2016-09-09T03:46:38.981Z,17.32
2016-09-09T03:47:49.283Z,17.46
2016-09-09T03:48:59.580Z,17.58
2016-09-09T03:50:09.873Z,17.81
2016-09-09T03:51:20.168Z,17.84
2016-09-09T03:52:30.478Z,17.99
2016-09-09T03:53:40.783Z,18.08
2016-09-09T03:54:50.753Z,18.21
2016-09-09T03:56:00.731Z,18.17
2016-09-09T03:57:11.029Z,18.2
2016-09-09T03:58:21.002Z,18.29
2016-09-09T03:59:31.300Z,18.39
2016-09-09T04:00:41.281Z,18.5
2016-09-09T04:01:51.570Z,18.47
2016-09-09T04:03:01.865Z,18.59
2016-09-09T04:04:12.174Z,18.63
2016-09-09T04:05:22.479Z,18.76
2016-09-09T04:06:32.470Z,18.74
2016-09-09T04:07:42.446Z,18.76
2016-09-09T04:08:52.769Z,18.86
2016-09-09T04:10:03.072Z,18.84
2016-09-09T04:11:13.370Z,18.84
2016-09-09T04:12:23.678Z,18.89
2016-09-09T04:13:33.985Z,18.93
2016-09-09T04:14:43.973Z,18.91
2016-09-09T04:15:53.964Z,18.93
2016-09-09T04:17:03.956Z,18.99
2016-09-09T04:18:14.272Z,18.93
2016-09-09T04:19:23.950Z,18.99
2016-09-09T04:20:34.258Z,19.05
2016-09-09T04:21:44.566Z,19.06
2016-09-09T04:22:54.565Z,19.12
2016-09-09T04:24:04.549Z,19.15
2016-09-09T04:25:14.544Z,19.19
2016-09-09T04:26:24.845Z,19.23
2016-09-09T04:27:34.847Z,19.23
2016-09-09T04:28:45.140Z,19.2
2016-09-09T04:29:55.447Z,19.3
2016-09-09T04:31:05.755Z,19.3
2016-09-09T04:32:16.058Z,19.28
2016-09-09T04:33:26.356Z,19.35
2016-09-09T04:34:36.662Z,19.28
2016-09-09T04:35:46.969Z,19.45
2016-09-09T04:36:57.258Z,19.45
2016-09-09T04:38:07.786Z,19.46
2016-09-09T04:39:18.074Z,19.71
2016-09-09T04:40:28.375Z,19.7
2016-09-09T04:41:38.360Z,19.83
2016-09-09T04:42:48.645Z,19.97
2016-09-09T04:43:58.931Z,20.05
2016-09-09T04:45:08.943Z,20.18
2016-09-09T04:46:19.263Z,20.35
2016-09-09T04:47:29.240Z,20.42
2016-09-09T04:48:39.570Z,20.44
2016-09-09T04:49:49.860Z,20.54
2016-09-09T04:51:00.179Z,20.67
2016-09-09T04:52:10.160Z,20.75
2016-09-09T04:53:20.442Z,20.91
2016-09-09T04:54:30.423Z,21.13
2016-09-09T04:55:40.790Z,21.22
2016-09-09T04:56:51.100Z,21.28
2016-09-09T04:58:01.411Z,21.43
2016-09-09T04:59:11.709Z,21.56
2016-09-09T05:00:22.004Z,21.56
2016-09-09T05:01:32.351Z,21.71
2016-09-09T05:02:42.632Z,21.94
2016-09-09T05:03:52.931Z,22.16
2016-09-09T05:05:03.239Z,22.2
2016-09-09T05:06:12.925Z,22.33
2016-09-09T05:07:23.229Z,22.44
2016-09-09T05:08:33.541Z,22.46
2016-09-09T05:09:43.844Z,22.41
2016-09-09T05:10:53.828Z,22.26
2016-09-09T05:12:03.829Z,22.26
2016-09-09T05:13:13.834Z,22.11
2016-09-09T05:14:24.126Z,22.14
2016-09-09T05:15:34.425Z,22.22
2016-09-09T05:16:44.736Z,22.12
2016-09-09T05:17:54.735Z,22.2
2016-09-09T05:19:05.040Z,22.16
2016-09-09T05:20:15.335Z,22.23
2016-09-09T05:21:25.634Z,22.24
2016-09-09T05:22:35.617Z,22.26
2016-09-09T05:23:45.919Z,22.31
2016-09-09T05:24:56.201Z,22.33
2016-09-09T05:26:06.484Z,22.48
2016-09-09T05:27:16.458Z,22.57
2016-09-09T05:28:26.151Z,22.71
2016-09-09T05:29:36.142Z,22.78
2016-09-09T05:30:46.460Z,22.78
2016-09-09T05:31:56.748Z,22.73
2016-09-09T05:33:07.059Z,22.69
2016-09-09T05:34:17.356Z,22.7
2016-09-09T05:35:27.674Z,22.75
2016-09-09T05:36:38.005Z,22.78
2016-09-09T05:37:47.996Z,22.86
2016-09-09T05:38:58.334Z,22.89
2016-09-09T05:40:08.337Z,22.89
2016-09-09T05:41:18.366Z,22.89
2016-09-09T05:42:28.671Z,22.91
2016-09-09T05:43:38.667Z,23.04
2016-09-09T05:44:48.945Z,22.91
2016-09-09T05:45:59.255Z,22.91
2016-09-09T05:47:09.589Z,22.91
2016-09-09T05:48:19.925Z,23.01
2016-09-09T05:49:29.601Z,23.06
2016-09-09T05:50:39.590Z,23.15
2016-09-09T05:51:49.916Z,23.24
2016-09-09T05:53:00.220Z,23.15
2016-09-09T05:54:10.510Z,23.16
2016-09-09T05:55:20.796Z,23.09
2016-09-09T05:56:31.132Z,23.06
2016-09-09T05:57:41.148Z,23.12
2016-09-09T05:58:51.128Z,23.26
2016-09-09T06:00:01.419Z,23.21
2016-09-09T06:01:11.756Z,23.19
2016-09-09T06:02:22.041Z,23.12
2016-09-09T06:03:32.334Z,23.22
2016-09-09T06:04:42.633Z,23.18
2016-09-09T06:05:52.626Z,23.21
2016-09-09T06:07:02.631Z,23.35
2016-09-09T06:08:12.914Z,23.4
2016-09-09T06:09:23.205Z,23.41
2016-09-09T06:10:33.509Z,23.47
2016-09-09T06:11:43.537Z,23.5
2016-09-09T06:12:53.841Z,23.57
2016-09-09T06:14:03.826Z,23.5
2016-09-09T06:15:14.139Z,23.55
2016-09-09T06:16:24.448Z,23.57
2016-09-09T06:17:34.423Z,23.63
2016-09-09T06:18:44.402Z,23.7
2016-09-09T06:19:54.701Z,23.67
2016-09-09T06:21:04.399Z,23.79
2016-09-09T06:22:14.691Z,23.74
2016-09-09T06:23:24.978Z,23.74
2016-09-09T06:24:35.287Z,23.81
2016-09-09T06:25:45.602Z,23.85
2016-09-09T06:26:55.297Z,23.89
2016-09-09T06:28:05.612Z,23.89
2016-09-09T06:29:15.916Z,23.93
2016-09-09T06:30:26.235Z,23.97
2016-09-09T06:31:36.222Z,24.08
2016-09-09T06:32:46.536Z,24.08
2016-09-09T06:33:56.828Z,24.14
2016-09-09T06:35:07.139Z,24.32
2016-09-09T06:36:17.429Z,24.33
2016-09-09T06:37:27.735Z,24.37
2016-09-09T06:38:37.736Z,24.46
2016-09-09T06:39:48.052Z,24.45
2016-09-09T06:40:58.055Z,24.66
2016-09-09T06:42:08.362Z,24.69
2016-09-09T06:43:18.671Z,24.67
2016-09-09T06:44:28.963Z,24.67
2016-09-09T06:45:39.269Z,24.86
2016-09-09T06:46:49.243Z,24.82
2016-09-09T06:47:59.555Z,24.89
2016-09-09T06:49:09.541Z,24.89
2016-09-09T06:50:19.548Z,24.93
2016-09-09T06:51:29.537Z,25.07
2016-09-09T06:52:39.860Z,24.97
2016-09-09T06:53:50.391Z,25.11
2016-09-09T06:55:00.685Z,25.14
2016-09-09T06:56:10.670Z,25.3
2016-09-09T06:57:20.972Z,25.26
2016-09-09T06:58:30.974Z,25.39
2016-09-09T06:59:40.979Z,25.41
2016-09-09T07:00:51.283Z,25.42
2016-09-09T07:02:01.275Z,25.47
2016-09-09T07:03:11.298Z,25.51
2016-09-09T07:04:21.269Z,25.63
2016-09-09T07:05:31.269Z,25.62
2016-09-09T07:06:41.567Z,25.62
2016-09-09T07:07:51.599Z,25.71
2016-09-09T07:09:01.604Z,25.78
2016-09-09T07:10:11.897Z,25.78
2016-09-09T07:11:21.889Z,25.86
2016-09-09T07:12:32.191Z,25.94
2016-09-09T07:13:42.197Z,25.97
2016-09-09T07:14:52.501Z,26.12
2016-09-09T07:16:02.172Z,26.09
2016-09-09T07:17:12.487Z,26.15
2016-09-09T07:18:22.469Z,26.16
2016-09-09T07:19:32.780Z,26.24
2016-09-09T07:20:43.103Z,26.24
2016-09-09T07:21:52.805Z,26.31
2016-09-09T07:23:03.102Z,26.31
2016-09-09T07:24:13.413Z,26.42
2016-09-09T07:25:23.733Z,26.47
2016-09-09T07:26:34.047Z,26.49
2016-09-09T07:27:44.046Z,26.59
2016-09-09T07:28:54.346Z,26.54
2016-09-09T07:30:04.337Z,26.71
2016-09-09T07:31:14.318Z,26.72
2016-09-09T07:32:24.851Z,26.72
2016-09-09T07:33:35.158Z,26.76
2016-09-09T07:34:45.123Z,26.87
2016-09-09T07:35:55.126Z,26.96
2016-09-09T07:37:05.454Z,26.9
2016-09-09T07:38:15.456Z,27.05
2016-09-09T07:39:25.476Z,27.12
2016-09-09T07:40:35.794Z,27.13
2016-09-09T07:41:45.798Z,27.11
2016-09-09T07:42:55.820Z,27.19
2016-09-09T07:44:06.122Z,27.33
2016-09-09T07:45:16.427Z,27.43
2016-09-09T07:46:26.755Z,27.48
2016-09-09T07:47:37.072Z,27.45
2016-09-09T07:48:47.379Z,27.52
2016-09-09T07:49:57.690Z,27.64
2016-09-09T07:51:07.684Z,27.62
2016-09-09T07:52:17.999Z,27.66
2016-09-09T07:53:28.032Z,27.72
2016-09-09T07:54:38.335Z,27.83
2016-09-09T07:55:48.640Z,27.87
2016-09-09T07:56:58.949Z,27.94
2016-09-09T07:58:09.253Z,28.03
2016-09-09T07:59:19.560Z,28.09
2016-09-09T08:00:29.578Z,28.14
2016-09-09T08:01:39.577Z,28.16
2016-09-09T08:02:49.933Z,28.21
2016-09-09T08:04:00.273Z,28.24
2016-09-09T08:05:10.614Z,28.16
2016-09-09T08:06:20.650Z,28.3
2016-09-09T08:07:31.000Z,28.31
2016-09-09T08:08:41.355Z,28.42
2016-09-09T08:09:51.985Z,28.54
2016-09-09T08:11:02.019Z,28.57
2016-09-09T08:12:12.346Z,28.57
2016-09-09T08:13:22.692Z,28.64
2016-09-09T08:14:33.027Z,28.78
2016-09-09T08:15:43.352Z,28.8
2016-09-09T08:16:53.380Z,28.78
2016-09-09T08:18:03.376Z,28.73
2016-09-09T08:19:13.720Z,28.86
2016-09-09T08:20:24.039Z,28.83
2016-09-09T08:21:34.606Z,28.83
2016-09-09T08:22:44.932Z,28.95
2016-09-09T08:23:55.258Z,28.94
2016-09-09T08:25:05.279Z,28.98
2016-09-09T08:26:15.627Z,29.05
2016-09-09T08:27:25.955Z,29.08
2016-09-09T08:28:36.286Z,29.15
2016-09-09T08:29:46.313Z,29.17
2016-09-09T08:30:56.647Z,29.28
2016-09-09T08:32:06.999Z,29.32
2016-09-09T08:33:17.014Z,29.4
2016-09-09T08:34:27.349Z,29.42
2016-09-09T08:35:37.662Z,29.48
2016-09-09T08:36:47.703Z,29.45
2016-09-09T08:37:58.046Z,29.54
2016-09-09T08:39:08.378Z,29.63
2016-09-09T08:40:18.698Z,29.66
2016-09-09T08:41:28.702Z,29.72
2016-09-09T08:42:38.735Z,29.75
2016-09-09T08:43:48.746Z,29.79
2016-09-09T08:44:59.088Z,29.7
2016-09-09T08:46:09.432Z,29.73
2016-09-09T08:47:19.759Z,29.77
2016-09-09T08:48:30.097Z,29.84
2016-09-09T08:49:40.418Z,29.94
2016-09-09T08:50:50.719Z,29.84
2016-09-09T08:52:01.029Z,29.94
2016-09-09T08:53:11.034Z,30
2016-09-09T08:54:21.358Z,30.03
2016-09-09T08:55:31.378Z,29.95
2016-09-09T08:56:41.378Z,30.03
2016-09-09T08:57:51.692Z,30.04
2016-09-09T08:59:02.102Z,30.04
2016-09-09T09:00:12.402Z,30.04
2016-09-09T09:01:22.736Z,30.04
2016-09-09T09:02:33.056Z,30.03
2016-09-09T09:03:43.373Z,30.06
2016-09-09T09:04:53.696Z,30.16
2016-09-09T09:06:03.731Z,30.34
2016-09-09T09:07:13.436Z,30.34
2016-09-09T09:08:23.736Z,30.42
2016-09-09T09:09:33.729Z,30.48
2016-09-09T09:10:44.031Z,30.54
2016-09-09T09:11:54.021Z,30.73
2016-09-09T09:13:04.326Z,30.7
2016-09-09T09:14:14.316Z,30.71
2016-09-09T09:15:24.633Z,30.81
2016-09-09T09:16:34.946Z,30.94
2016-09-09T09:17:45.262Z,31.03
2016-09-09T09:18:55.251Z,30.99
2016-09-09T09:20:05.264Z,31.18
2016-09-09T09:21:15.567Z,31.26
2016-09-09T09:22:25.866Z,31.41
2016-09-09T09:23:36.198Z,31.41
2016-09-09T09:24:46.221Z,31.4
2016-09-09T09:25:56.530Z,31.49
2016-09-09T09:27:06.844Z,31.49
2016-09-09T09:28:17.146Z,31.65
2016-09-09T09:29:27.466Z,31.74
2016-09-09T09:30:37.776Z,31.87
2016-09-09T09:31:48.087Z,31.86
2016-09-09T09:32:58.401Z,31.91
2016-09-09T09:34:08.694Z,31.87
2016-09-09T09:35:18.683Z,31.81
2016-09-09T09:36:28.677Z,31.86
2016-09-09T09:37:38.986Z,31.95
2016-09-09T09:38:49.293Z,32.01
2016-09-09T09:39:59.601Z,32.01
2016-09-09T09:41:09.914Z,32
2016-09-09T09:42:19.936Z,32.05
2016-09-09T09:43:29.930Z,32.09
2016-09-09T09:44:39.930Z,32.1
2016-09-09T09:45:49.912Z,32.2
2016-09-09T09:46:59.601Z,32.27
2016-09-09T09:48:09.606Z,32.38
2016-09-09T09:49:19.923Z,32.35
2016-09-09T09:50:29.919Z,32.54
2016-09-09T09:51:40.230Z,32.56
2016-09-09T09:52:50.246Z,32.49
2016-09-09T09:54:00.557Z,32.64
2016-09-09T09:55:10.856Z,32.65
2016-09-09T09:56:21.159Z,32.68
2016-09-09T09:57:31.456Z,32.62
2016-09-09T09:58:41.895Z,32.74
2016-09-09T09:59:52.227Z,32.79
2016-09-09T10:01:02.556Z,32.79
2016-09-09T10:02:12.866Z,32.8
2016-09-09T10:03:23.167Z,32.84
2016-09-09T10:04:33.470Z,32.71
2016-09-09T10:05:43.787Z,32.71
2016-09-09T10:06:54.101Z,32.69
2016-09-09T10:08:04.409Z,32.72
2016-09-09T10:09:14.744Z,32.75
2016-09-09T10:10:25.088Z,32.79
2016-09-09T10:11:35.417Z,32.89
2016-09-09T10:12:45.753Z,32.75
2016-09-09T10:13:56.052Z,32.86
2016-09-09T10:15:06.359Z,32.72
2016-09-09T10:16:16.672Z,32.84
2016-09-09T10:17:26.686Z,32.9
2016-09-09T10:18:37.002Z,32.83
2016-09-09T10:19:47.349Z,32.96
2016-09-09T10:20:57.347Z,32.96
2016-09-09T10:22:07.897Z,33.03
2016-09-09T10:23:18.213Z,33.05
2016-09-09T10:24:28.520Z,33.03
2016-09-09T10:25:38.526Z,33.2
2016-09-09T10:26:48.515Z,33.17
2016-09-09T10:27:58.202Z,33.13
2016-09-09T10:29:08.542Z,33.18
2016-09-09T10:30:18.830Z,33.11
2016-09-09T10:31:29.134Z,33.17
2016-09-09T10:32:39.447Z,33.21
2016-09-09T10:33:49.781Z,33.23
2016-09-09T10:35:00.101Z,33.23
2016-09-09T10:36:10.109Z,33.36
2016-09-09T10:37:20.089Z,33.46
2016-09-09T10:38:30.092Z,33.5
2016-09-09T10:39:40.098Z,33.5
2016-09-09T10:40:50.405Z,33.53
2016-09-09T10:42:00.729Z,33.58
2016-09-09T10:43:11.041Z,33.61
2016-09-09T10:44:21.341Z,33.62
2016-09-09T10:45:31.654Z,33.61
2016-09-09T10:46:41.985Z,33.73
2016-09-09T10:47:52.293Z,33.75
2016-09-09T10:49:02.317Z,33.74
2016-09-09T10:50:12.613Z,33.87
2016-09-09T10:51:22.634Z,33.87
2016-09-09T10:52:32.936Z,33.87
2016-09-09T10:53:42.615Z,33.93
2016-09-09T10:54:52.937Z,34.03
2016-09-09T10:56:02.950Z,34.02
2016-09-09T10:57:13.257Z,34.03
2016-09-09T10:58:23.573Z,34.06
2016-09-09T10:59:33.580Z,34.17
2016-09-09T11:00:43.589Z,34.17
2016-09-09T11:01:53.592Z,34.32
2016-09-09T11:03:03.594Z,34.29
2016-09-09T11:04:13.286Z,34.3
2016-09-09T11:05:22.991Z,34.32
2016-09-09T11:06:32.993Z,34.3
2016-09-09T11:07:43.317Z,34.41
2016-09-09T11:08:53.647Z,34.41
2016-09-09T11:10:03.967Z,34.45
2016-09-09T11:11:14.258Z,34.52
2016-09-09T11:12:24.281Z,34.48
2016-09-09T11:13:34.593Z,34.52
2016-09-09T11:14:44.903Z,34.58
2016-09-09T11:15:54.890Z,34.59
2016-09-09T11:17:04.910Z,34.59
2016-09-09T11:18:14.890Z,34.71
2016-09-09T11:19:25.196Z,34.69
2016-09-09T11:20:35.511Z,34.71
2016-09-09T11:21:45.877Z,34.67
2016-09-09T11:22:56.196Z,34.72
2016-09-09T11:24:06.204Z,34.71
2016-09-09T11:25:16.531Z,34.72
2016-09-09T11:26:26.850Z,34.67
2016-09-09T11:27:37.180Z,34.81
2016-09-09T11:28:47.483Z,34.84
2016-09-09T11:29:57.783Z,34.89
2016-09-09T11:31:08.111Z,34.83
2016-09-09T11:32:18.410Z,34.89
2016-09-09T11:33:28.739Z,34.9
2016-09-09T11:34:39.077Z,34.93
2016-09-09T11:35:49.398Z,34.93
2016-09-09T11:36:59.720Z,34.83
2016-09-09T11:38:10.033Z,34.89
2016-09-09T11:39:20.346Z,34.96
2016-09-09T11:40:30.355Z,34.97
2016-09-09T11:41:40.374Z,34.93
2016-09-09T11:42:50.687Z,35.15
2016-09-09T11:44:00.388Z,35.06
2016-09-09T11:45:10.422Z,35.11
2016-09-09T11:46:20.428Z,35.16
2016-09-09T11:47:30.753Z,35.27
2016-09-09T11:48:40.772Z,35.21
2016-09-09T11:49:50.728Z,35.31
2016-09-09T11:51:00.743Z,35.31
2016-09-09T11:52:10.765Z,35.4
2016-09-09T11:53:20.774Z,35.4
2016-09-09T11:54:30.867Z,35.55
2016-09-09T11:55:40.885Z,35.58
2016-09-09T11:56:50.880Z,35.62
2016-09-09T11:58:00.908Z,35.53
2016-09-09T11:59:10.321Z,35.69
2016-09-09T12:00:20.313Z,35.8
2016-09-09T12:01:30.372Z,35.8
2016-09-09T12:02:40.618Z,35.86
2016-09-09T12:03:50.930Z,35.87
2016-09-09T12:05:00.932Z,35.82
2016-09-09T12:06:10.940Z,35.82
2016-09-09T12:07:20.944Z,35.8
2016-09-09T12:08:30.933Z,35.79
2016-09-09T12:09:40.937Z,35.87
2016-09-09T12:10:50.955Z,35.9
2016-09-09T12:12:01.258Z,35.86
2016-09-09T12:13:11.564Z,35.92
2016-09-09T12:14:21.578Z,35.96
2016-09-09T12:15:31.620Z,35.96
2016-09-09T12:16:41.932Z,35.87
2016-09-09T12:17:51.942Z,35.82
2016-09-09T12:19:01.656Z,35.77
2016-09-09T12:20:11.998Z,35.72
2016-09-09T12:21:21.989Z,35.77
2016-09-09T12:22:31.680Z,35.77
2016-09-09T12:23:41.378Z,35.82
2016-09-09T12:24:51.303Z,35.77
2016-09-09T12:26:01.309Z,35.92
2016-09-09T12:27:11.005Z,35.94
2016-09-09T12:28:21.324Z,35.96
2016-09-09T12:29:31.340Z,35.95
2016-09-09T12:30:41.349Z,35.9
2016-09-09T12:31:51.039Z,35.87
2016-09-09T12:33:01.360Z,35.9
2016-09-09T12:34:11.043Z,35.9
2016-09-09T12:35:20.748Z,35.96
2016-09-09T12:36:30.745Z,35.98
2016-09-09T12:37:41.058Z,35.94
2016-09-09T12:38:51.071Z,35.94
2016-09-09T12:40:01.378Z,35.9
2016-09-09T12:41:11.380Z,35.98
2016-09-09T12:42:21.718Z,35.9
2016-09-09T12:43:31.424Z,35.92
2016-09-09T12:44:41.107Z,35.94
2016-09-09T12:45:51.420Z,35.98
2016-09-09T12:47:01.121Z,35.89
2016-09-09T12:48:10.533Z,35.92
2016-09-09T12:49:20.229Z,35.9
2016-09-09T12:50:30.525Z,35.79
2016-09-09T12:51:40.526Z,35.8
2016-09-09T12:52:50.842Z,35.74
2016-09-09T12:54:01.173Z,35.72
2016-09-09T12:55:11.472Z,35.69
2016-09-09T12:56:21.476Z,35.61
2016-09-09T12:57:31.465Z,35.61
2016-09-09T12:58:41.484Z,35.62
2016-09-09T12:59:51.821Z,35.53
2016-09-09T13:01:01.843Z,35.55
2016-09-09T13:02:11.544Z,35.67
2016-09-09T13:03:21.246Z,35.64
2016-09-09T13:04:30.636Z,35.64
2016-09-09T13:05:40.619Z,35.64
2016-09-09T13:06:50.000Z,35.65
2016-09-09T13:08:00.005Z,35.53
2016-09-09T13:09:09.699Z,35.6
2016-09-09T13:10:19.705Z,35.62
2016-09-09T13:11:30.032Z,35.53
2016-09-09T13:12:40.025Z,35.52
2016-09-09T13:13:50.341Z,35.57
2016-09-09T13:15:00.662Z,35.55
2016-09-09T13:16:10.680Z,35.49
2016-09-09T13:17:20.990Z,35.57
2016-09-09T13:18:30.999Z,35.57
2016-09-09T13:19:41.314Z,35.62
2016-09-09T13:20:51.337Z,35.53
2016-09-09T13:22:01.685Z,35.62
2016-09-09T13:23:12.006Z,35.62
2016-09-09T13:24:22.310Z,35.68
2016-09-09T13:25:32.019Z,35.71
2016-09-09T13:26:42.335Z,35.82
2016-09-09T13:27:52.368Z,35.76
2016-09-09T13:29:02.692Z,35.79
2016-09-09T13:30:12.994Z,35.82
2016-09-09T13:31:22.990Z,35.82
2016-09-09T13:32:33.316Z,35.77
2016-09-09T13:33:43.633Z,35.84
2016-09-09T13:34:53.959Z,35.82
2016-09-09T13:36:04.265Z,35.8
2016-09-09T13:37:14.582Z,35.9
2016-09-09T13:38:25.137Z,35.9
2016-09-09T13:39:35.471Z,35.9
2016-09-09T13:40:45.803Z,35.87
2016-09-09T13:41:56.124Z,35.74
2016-09-09T13:43:06.447Z,35.77
2016-09-09T13:44:16.458Z,35.58
2016-09-09T13:45:26.780Z,35.55
2016-09-09T13:46:37.106Z,35.47
2016-09-09T13:47:47.421Z,35.46
2016-09-09T13:48:57.109Z,35.45
2016-09-09T13:50:06.797Z,35.42
2016-09-09T13:51:17.111Z,35.46
2016-09-09T13:52:27.409Z,35.42
2016-09-09T13:53:37.436Z,35.53
2016-09-09T13:54:47.755Z,35.46
2016-09-09T13:55:57.784Z,35.46
2016-09-09T13:57:08.088Z,35.5
2016-09-09T13:58:18.089Z,35.47
2016-09-09T13:59:28.428Z,35.45
2016-09-09T14:00:38.741Z,35.45
2016-09-09T14:01:48.433Z,35.43
2016-09-09T14:02:58.501Z,35.46
2016-09-09T14:04:08.836Z,35.38
2016-09-09T14:05:18.853Z,35.57
2016-09-09T14:06:29.174Z,35.42
2016-09-09T14:07:39.493Z,35.45
2016-09-09T14:08:49.795Z,35.43
2016-09-09T14:10:01.531Z,35.52
2016-09-09T14:11:15.747Z,35.52
2016-09-09T14:12:27.467Z,35.46
2016-09-09T14:13:37.481Z,35.43
2016-09-09T14:14:47.788Z,35.46
2016-09-09T14:15:58.109Z,35.5
2016-09-09T14:17:08.440Z,35.46
2016-09-09T14:18:18.783Z,35.55
2016-09-09T14:19:29.105Z,35.46
2016-09-09T14:20:39.462Z,35.55
2016-09-09T14:21:49.460Z,35.52
2016-09-09T14:22:59.789Z,35.45
2016-09-09T14:24:10.122Z,35.49
2016-09-09T14:25:20.143Z,35.4
2016-09-09T14:26:30.445Z,35.38
2016-09-09T14:27:40.462Z,35.39
2016-09-09T14:28:50.783Z,35.46
2016-09-09T14:30:01.106Z,35.4
2016-09-09T14:31:11.132Z,35.43
2016-09-09T14:32:21.469Z,35.42
2016-09-09T14:33:31.778Z,35.58
2016-09-09T14:34:42.093Z,35.57
2016-09-09T14:35:52.407Z,35.57
2016-09-09T14:37:02.413Z,35.55
2016-09-09T14:38:12.714Z,35.57
2016-09-09T14:39:23.037Z,35.57
2016-09-09T14:40:33.358Z,35.57
2016-09-09T14:41:43.677Z,35.53
2016-09-09T14:42:53.985Z,35.52
2016-09-09T14:44:04.009Z,35.45
2016-09-09T14:45:14.317Z,35.39
2016-09-09T14:46:24.633Z,35.3
2016-09-09T14:47:34.949Z,35.2
2016-09-09T14:48:44.948Z,35.24
2016-09-09T14:49:55.280Z,35.18
2016-09-09T14:51:04.653Z,35.26
2016-09-09T14:52:14.967Z,35.13
2016-09-09T14:53:24.967Z,35.13
2016-09-09T14:54:35.291Z,35.09
2016-09-09T14:55:45.307Z,35.11
2016-09-09T14:56:55.627Z,35.15
2016-09-09T14:58:05.948Z,35.16
2016-09-09T14:59:16.244Z,35.23
2016-09-09T15:00:26.549Z,35.18
2016-09-09T15:01:36.559Z,35.18
2016-09-09T15:02:46.988Z,35.11
2016-09-09T15:03:57.310Z,35.06
2016-09-09T15:05:08.984Z,35.11
2016-09-09T15:06:19.348Z,35.09
2016-09-09T15:07:29.741Z,35.04
2016-09-09T15:08:41.794Z,34.94
2016-09-09T15:09:52.099Z,34.94
2016-09-09T15:11:02.093Z,34.96
2016-09-09T15:12:12.594Z,34.99
2016-09-09T15:13:22.615Z,34.84
2016-09-09T15:14:32.615Z,34.84
2016-09-09T15:15:42.618Z,34.81
2016-09-09T15:16:52.403Z,34.83
2016-09-09T15:18:02.465Z,34.86
2016-09-09T15:19:17.099Z,34.81
2016-09-09T15:20:26.472Z,34.78
2016-09-09T15:21:36.720Z,34.74
2016-09-09T15:22:46.864Z,34.75
2016-09-09T15:23:56.972Z,34.64
2016-09-09T15:25:07.816Z,34.61
2016-09-09T15:26:19.785Z,34.55
2016-09-09T15:27:29.797Z,34.48
2016-09-09T15:28:39.808Z,34.45
2016-09-09T15:29:54.815Z,34.41
2016-09-09T15:31:06.146Z,34.29
2016-09-09T15:32:16.157Z,34.21
2016-09-09T15:33:27.054Z,34.1
2016-09-09T15:34:37.493Z,34.08
2016-09-09T15:35:47.525Z,34.03
2016-09-09T15:36:57.923Z,33.83
2016-09-09T15:38:08.236Z,33.77